createdAt,value
2019-03-21T00:01:24.981Z,8.33
2019-03-21T00:03:57.889Z,10.83
2019-03-21T00:06:28.518Z,7.00
2019-03-21T00:08:59.369Z,9.30
2019-03-21T00:12:21.500Z,8.80
2019-03-21T00:15:18.597Z,9.83
2019-03-21T00:17:53.417Z,5.33
2019-03-21T00:20:24.230Z,11.00
2019-03-21T00:22:54.829Z,9.43
2019-03-21T00:25:26.038Z,8.67
2019-03-21T00:27:56.237Z,8.20
2019-03-21T00:30:26.557Z,9.87
2019-03-21T00:32:56.917Z,8.17
2019-03-21T00:35:28.034Z,9.20
2019-03-21T00:37:58.374Z,8.57
2019-03-21T00:40:33.961Z,9.37
2019-03-21T00:43:05.845Z,10.13
2019-03-21T00:45:36.693Z,9.80
2019-03-21T00:48:08.758Z,11.00
2019-03-21T00:50:39.665Z,10.83
2019-03-21T00:53:10.499Z,8.73
2019-03-21T00:55:41.973Z,11.67
2019-03-21T00:58:13.201Z,12.77
2019-03-21T01:00:49.510Z,9.70
2019-03-21T01:03:20.115Z,8.57
2019-03-21T01:05:51.440Z,11.70
2019-03-21T01:08:22.502Z,9.90
2019-03-21T01:10:53.160Z,9.57
2019-03-21T01:13:23.930Z,11.27
2019-03-21T01:15:54.677Z,10.73
2019-03-21T01:18:25.750Z,12.43
2019-03-21T01:20:56.478Z,12.10
2019-03-21T01:23:26.754Z,10.83
2019-03-21T01:25:57.707Z,11.23
2019-03-21T01:28:28.335Z,12.43
2019-03-21T01:30:58.655Z,9.87
2019-03-21T01:33:29.226Z,7.50
2019-03-21T01:35:59.848Z,12.60
2019-03-21T01:38:29.710Z,12.80
2019-03-21T01:40:59.725Z,9.90
2019-03-21T01:43:30.306Z,8.17
2019-03-21T01:46:00.903Z,8.37
2019-03-21T01:48:30.789Z,7.87
2019-03-21T01:51:00.666Z,9.90
2019-03-21T01:53:30.994Z,11.23
2019-03-21T01:56:01.392Z,12.57
2019-03-21T01:58:31.947Z,12.07
2019-03-21T02:01:02.584Z,12.97
2019-03-21T02:03:33.569Z,14.43
2019-03-21T02:06:04.458Z,13.87
2019-03-21T02:08:35.112Z,11.93
2019-03-21T02:11:04.993Z,12.83
2019-03-21T02:13:35.292Z,10.60
2019-03-21T02:16:05.611Z,11.37
2019-03-21T02:18:36.197Z,14.03
2019-03-21T02:21:06.070Z,11.90
2019-03-21T02:23:36.545Z,13.37
2019-03-21T02:26:07.397Z,8.90
2019-03-21T02:28:37.701Z,11.67
2019-03-21T02:31:08.646Z,15.53
2019-03-21T02:33:38.969Z,12.50
2019-03-21T02:36:09.279Z,11.83
2019-03-21T02:38:40.439Z,15.30
2019-03-21T02:41:11.275Z,11.47
2019-03-21T02:43:41.739Z,16.50
2019-03-21T02:46:12.094Z,11.80
2019-03-21T02:48:42.845Z,11.30
2019-03-21T02:51:13.087Z,16.77
2019-03-21T02:53:43.377Z,14.70
2019-03-21T02:56:14.991Z,15.73
2019-03-21T02:58:45.706Z,11.63
2019-03-21T03:01:16.351Z,17.60
2019-03-21T03:03:46.668Z,17.00
2019-03-21T03:06:16.941Z,16.77
2019-03-21T03:08:47.538Z,16.40
2019-03-21T03:11:19.120Z,17.00
2019-03-21T03:13:50.105Z,16.33
2019-03-21T03:16:20.634Z,14.30
2019-03-21T03:18:50.991Z,16.00
2019-03-21T03:21:21.593Z,11.70
2019-03-21T03:23:51.888Z,15.87
2019-03-21T03:26:22.534Z,14.87
2019-03-21T03:28:53.044Z,15.33
2019-03-21T03:31:23.669Z,17.70
2019-03-21T03:33:53.630Z,11.73
2019-03-21T03:36:24.260Z,14.50
2019-03-21T03:38:54.427Z,11.80
2019-03-21T03:41:24.624Z,15.67
2019-03-21T03:43:55.129Z,17.87
2019-03-21T03:46:25.418Z,14.77
2019-03-21T03:48:55.681Z,16.07
2019-03-21T03:51:25.927Z,14.03
2019-03-21T03:53:56.150Z,10.37
2019-03-21T03:56:26.748Z,18.87
2019-03-21T03:58:58.124Z,17.40
2019-03-21T04:01:28.417Z,19.47
2019-03-21T04:03:58.867Z,17.23
2019-03-21T04:06:29.159Z,15.43
2019-03-21T04:08:59.994Z,16.87
2019-03-21T04:11:30.302Z,20.50
2019-03-21T04:14:01.314Z,19.77
2019-03-21T04:16:31.601Z,17.90
2019-03-21T04:19:01.820Z,18.57
2019-03-21T04:21:32.478Z,19.33
2019-03-21T04:24:02.775Z,17.97
2019-03-21T04:26:32.966Z,20.50
2019-03-21T04:29:02.923Z,19.40
2019-03-21T04:31:33.558Z,20.50
2019-03-21T04:34:05.686Z,16.20
2019-03-21T04:36:36.634Z,19.30
2019-03-21T04:39:09.182Z,19.30
2019-03-21T04:41:40.510Z,21.03
2019-03-21T04:44:10.401Z,15.43
2019-03-21T04:46:40.632Z,19.37
2019-03-21T04:49:10.722Z,21.27
2019-03-21T04:51:41.020Z,22.67
2019-03-21T04:54:11.421Z,17.93
2019-03-21T04:56:42.319Z,19.50
2019-03-21T04:59:12.270Z,20.00
2019-03-21T05:01:42.632Z,18.33
2019-03-21T05:04:12.873Z,18.30
2019-03-21T05:06:43.253Z,21.90
2019-03-21T05:09:17.292Z,18.90
2019-03-21T05:11:47.509Z,19.57
2019-03-21T05:14:17.676Z,19.63
2019-03-21T05:16:48.368Z,17.70
2019-03-21T05:19:18.257Z,23.73
2019-03-21T05:21:48.344Z,20.57
2019-03-21T05:24:19.518Z,16.77
2019-03-21T05:26:49.833Z,21.37
2019-03-21T05:29:20.401Z,20.97
2019-03-21T05:31:50.289Z,17.17
2019-03-21T05:34:20.572Z,21.97
2019-03-21T05:36:51.233Z,22.27
2019-03-21T05:39:22.227Z,21.60
2019-03-21T05:41:52.125Z,22.07
2019-03-21T05:44:27.574Z,20.97
2019-03-21T05:46:57.552Z,19.00
2019-03-21T05:49:28.006Z,21.87
2019-03-21T05:51:58.745Z,22.27
2019-03-21T05:54:29.690Z,23.33
2019-03-21T05:57:00.177Z,22.97
2019-03-21T05:59:30.456Z,20.27
2019-03-21T06:02:00.854Z,22.57
2019-03-21T06:04:31.102Z,22.60
2019-03-21T06:07:12.410Z,23.20
2019-03-21T06:09:42.323Z,16.80
2019-03-21T06:12:12.622Z,21.60
2019-03-21T06:14:47.231Z,23.43
2019-03-21T06:17:17.096Z,22.13
2019-03-21T06:20:12.377Z,24.53
2019-03-21T06:22:59.284Z,23.27
2019-03-21T06:26:19.414Z,18.50
2019-03-21T06:28:50.020Z,18.47
2019-03-21T06:31:20.730Z,14.20
2019-03-21T06:33:51.711Z,17.93
2019-03-21T06:36:22.326Z,24.87
2019-03-21T06:38:52.650Z,23.20
2019-03-21T06:41:23.480Z,20.07
2019-03-21T06:43:54.493Z,20.00
2019-03-21T06:46:24.943Z,19.00
2019-03-21T06:48:55.304Z,24.03
2019-03-21T06:51:26.139Z,23.87
2019-03-21T06:53:56.879Z,23.57
2019-03-21T06:56:26.910Z,24.97
2019-03-21T06:58:57.985Z,24.30
2019-03-21T07:01:28.407Z,24.80
2019-03-21T07:04:06.986Z,21.33
2019-03-21T07:06:31.408Z,21.60
2019-03-21T07:09:01.765Z,20.10
2019-03-21T07:11:32.594Z,19.90
2019-03-21T07:14:03.177Z,23.03
2019-03-21T07:16:33.719Z,21.17
2019-03-21T07:19:04.730Z,25.80
2019-03-21T07:21:35.153Z,23.80
2019-03-21T07:24:05.893Z,22.73
2019-03-21T07:26:36.215Z,28.00
2019-03-21T07:29:06.406Z,24.20
2019-03-21T07:31:37.011Z,25.77
2019-03-21T07:34:10.037Z,24.30
2019-03-21T07:36:39.290Z,21.10
2019-03-21T07:39:09.747Z,15.10
2019-03-21T07:41:40.221Z,18.80
2019-03-21T07:44:10.929Z,24.93
2019-03-21T07:46:41.276Z,24.87
2019-03-21T07:49:11.273Z,20.53
2019-03-21T07:51:41.677Z,20.00
2019-03-21T07:54:12.499Z,18.87
2019-03-21T07:56:42.863Z,24.70
2019-03-21T07:59:13.496Z,24.10
2019-03-21T08:01:45.496Z,23.67
2019-03-21T08:04:16.586Z,25.17
2019-03-21T08:06:46.633Z,22.80
2019-03-21T08:09:17.194Z,22.10
2019-03-21T08:11:47.250Z,23.87
2019-03-21T08:14:17.917Z,22.37
2019-03-21T08:16:48.720Z,25.33
2019-03-21T08:19:19.492Z,23.30
2019-03-21T08:21:49.826Z,24.03
2019-03-21T08:24:20.232Z,24.73
2019-03-21T08:26:50.737Z,21.33
2019-03-21T08:29:22.292Z,24.40
2019-03-21T08:31:52.544Z,26.40
2019-03-21T08:34:22.859Z,25.67
2019-03-21T08:36:53.189Z,22.37
2019-03-21T08:39:23.941Z,27.70
2019-03-21T08:41:54.206Z,26.40
2019-03-21T08:44:25.330Z,18.93
2019-03-21T08:46:55.353Z,24.30
2019-03-21T08:49:26.056Z,26.67
2019-03-21T08:51:56.735Z,22.60
2019-03-21T08:54:27.939Z,25.13
2019-03-21T08:56:58.562Z,25.00
2019-03-21T08:59:29.251Z,24.17
2019-03-21T09:01:59.688Z,26.80
2019-03-21T09:04:31.004Z,25.77
2019-03-21T09:07:03.374Z,24.80
2019-03-21T09:09:34.030Z,21.10
2019-03-21T09:12:04.051Z,24.37
2019-03-21T09:14:34.538Z,20.50
2019-03-21T09:17:05.076Z,20.80
2019-03-21T09:19:35.322Z,20.57
2019-03-21T09:22:06.447Z,20.90
2019-03-21T09:24:36.502Z,17.37
2019-03-21T09:27:08.809Z,19.03
2019-03-21T09:29:40.225Z,21.90
2019-03-21T09:32:11.033Z,19.10
2019-03-21T09:34:42.145Z,16.47
2019-03-21T09:37:13.615Z,12.37
2019-03-21T09:39:44.146Z,20.30
2019-03-21T09:42:14.498Z,20.97
2019-03-21T09:44:45.462Z,20.80
2019-03-21T09:47:16.409Z,21.30
2019-03-21T09:49:47.184Z,18.70
2019-03-21T09:52:17.340Z,19.77
2019-03-21T09:54:48.315Z,22.17
2019-03-21T09:57:18.685Z,21.80
2019-03-21T09:59:50.208Z,21.13
2019-03-21T10:02:21.121Z,20.70
2019-03-21T10:04:51.214Z,19.37
2019-03-21T10:07:21.473Z,17.37
2019-03-21T10:09:52.319Z,17.30
2019-03-21T10:12:22.785Z,13.27
2019-03-21T10:14:53.532Z,16.03
2019-03-21T10:17:24.613Z,19.60
2019-03-21T10:19:55.193Z,20.87
2019-03-21T10:22:26.098Z,20.00
2019-03-21T10:24:56.763Z,22.90
2019-03-21T10:27:27.369Z,20.80
2019-03-21T10:29:57.944Z,23.80
2019-03-21T10:32:30.593Z,24.57
2019-03-21T10:35:00.705Z,25.47
2019-03-21T10:37:31.227Z,23.00
2019-03-21T10:40:02.250Z,17.03
2019-03-21T10:42:32.897Z,16.57
2019-03-21T10:45:03.027Z,22.43
2019-03-21T10:47:33.688Z,23.00
2019-03-21T10:50:05.623Z,24.07
2019-03-21T10:52:36.863Z,20.83
2019-03-21T10:55:07.530Z,17.53
2019-03-21T10:57:37.907Z,14.80
2019-03-21T11:00:09.127Z,17.83
2019-03-21T11:02:39.798Z,18.20
2019-03-21T11:05:10.222Z,20.43
2019-03-21T11:07:40.699Z,24.10
2019-03-21T11:10:11.738Z,21.80
2019-03-21T11:12:42.747Z,18.77
2019-03-21T11:15:12.970Z,12.47
2019-03-21T11:17:43.573Z,16.60
2019-03-21T11:20:19.033Z,15.00
2019-03-21T11:22:49.424Z,16.63
2019-03-21T11:25:19.906Z,15.27
2019-03-21T11:27:50.152Z,14.20
2019-03-21T11:30:28.038Z,17.90
2019-03-21T11:32:58.614Z,15.87
2019-03-21T11:35:28.908Z,17.53
2019-03-21T11:37:58.973Z,15.43
2019-03-21T11:40:29.163Z,13.10
2019-03-21T11:42:59.997Z,12.67
2019-03-21T11:45:30.547Z,14.13
2019-03-21T11:48:01.735Z,13.30
2019-03-21T11:50:32.128Z,12.40
2019-03-21T11:53:04.179Z,12.43
2019-03-21T11:55:34.462Z,13.80
2019-03-21T11:58:04.484Z,15.03
2019-03-21T12:00:42.934Z,14.63
2019-03-21T12:03:08.148Z,16.97
2019-03-21T12:05:38.173Z,15.90
2019-03-21T12:08:08.569Z,14.23
2019-03-21T12:10:40.957Z,16.07
2019-03-21T12:17:12.939Z,17.00
2019-03-21T12:19:43.482Z,16.80
2019-03-21T12:22:29.538Z,15.70
2019-03-21T12:24:51.394Z,12.63
2019-03-21T12:27:21.683Z,14.83
2019-03-21T12:29:52.626Z,15.00
2019-03-21T12:32:23.463Z,14.30
2019-03-21T12:34:54.537Z,11.53
2019-03-21T12:37:25.746Z,16.23
2019-03-21T12:39:56.078Z,13.47
2019-03-21T12:42:27.064Z,13.90
2019-03-21T12:44:57.056Z,15.30
2019-03-21T12:47:31.485Z,13.60
2019-03-21T12:49:58.909Z,13.17
2019-03-21T12:55:01.483Z,14.83
2019-03-21T12:56:19.602Z,12.53
2019-03-21T12:57:31.745Z,15.53
2019-03-21T13:00:02.681Z,13.03
2019-03-21T13:02:32.854Z,10.27
2019-03-21T13:05:04.733Z,11.87
2019-03-21T13:07:35.397Z,13.80
2019-03-21T13:10:07.105Z,11.50
2019-03-21T13:12:37.194Z,9.10
2019-03-21T13:15:07.437Z,11.83
2019-03-21T13:17:37.420Z,12.23
2019-03-21T13:20:07.846Z,12.37
2019-03-21T13:22:38.288Z,12.00
2019-03-21T13:25:08.647Z,12.90
2019-03-21T13:27:39.347Z,15.53
2019-03-21T13:30:09.978Z,10.73
2019-03-21T13:32:40.739Z,9.57
2019-03-21T13:35:10.953Z,12.10
2019-03-21T13:37:41.386Z,10.80
2019-03-21T13:40:11.660Z,10.90
2019-03-21T13:42:42.356Z,9.73
2019-03-21T13:45:13.235Z,8.17
2019-03-21T13:47:43.223Z,9.70
2019-03-21T13:50:15.449Z,12.00
2019-03-21T13:53:03.938Z,11.17
2019-03-21T13:55:25.809Z,8.60
2019-03-21T13:57:56.581Z,10.53
2019-03-21T14:00:27.542Z,11.47
2019-03-21T14:02:58.485Z,10.47
2019-03-21T14:05:28.879Z,10.83
2019-03-21T14:07:59.801Z,10.83
2019-03-21T14:10:32.327Z,8.70
2019-03-21T14:13:03.065Z,12.17
2019-03-21T14:15:33.081Z,12.70
2019-03-21T14:18:04.327Z,11.67
2019-03-21T14:20:35.484Z,9.70
2019-03-21T14:23:16.484Z,10.90
2019-03-21T14:25:39.102Z,10.77
2019-03-21T14:28:09.427Z,10.70
2019-03-21T14:30:40.197Z,9.10
2019-03-21T14:33:11.232Z,9.90
2019-03-21T14:35:41.190Z,9.63
2019-03-21T14:38:13.320Z,10.20
2019-03-21T14:40:43.567Z,9.33
2019-03-21T14:43:13.664Z,9.40
2019-03-21T14:45:44.370Z,8.80
2019-03-21T14:48:14.677Z,8.77
2019-03-21T14:50:45.096Z,8.20
2019-03-21T14:53:15.508Z,8.60
2019-03-21T14:55:47.637Z,8.30
2019-03-21T14:58:18.549Z,7.27
2019-03-21T15:00:49.246Z,7.87
2019-03-21T15:03:20.344Z,8.80
2019-03-21T15:05:51.554Z,7.27
2019-03-21T15:08:22.331Z,7.33
2019-03-21T15:10:52.970Z,6.77
2019-03-21T15:13:23.734Z,7.13
2019-03-21T15:15:54.010Z,6.03
2019-03-21T15:18:23.918Z,6.03
2019-03-21T15:20:54.507Z,5.97
2019-03-21T15:23:25.966Z,5.50
2019-03-21T15:25:56.518Z,7.10
2019-03-21T15:28:26.758Z,6.47
2019-03-21T15:30:56.902Z,5.90
2019-03-21T15:33:27.113Z,6.10
2019-03-21T15:35:57.738Z,6.47
2019-03-21T15:38:28.272Z,6.47
2019-03-21T15:40:58.721Z,6.53
2019-03-21T15:43:29.361Z,7.13
2019-03-21T15:45:59.541Z,7.60
2019-03-21T15:48:29.882Z,7.80
2019-03-21T15:51:04.876Z,7.30
2019-03-21T15:53:32.496Z,7.40
2019-03-21T15:56:02.914Z,7.93
2019-03-21T15:58:33.578Z,7.10
2019-03-21T16:01:07.148Z,7.60
2019-03-21T16:03:37.697Z,7.77
2019-03-21T16:06:08.517Z,7.60
2019-03-21T16:08:38.945Z,7.57
2019-03-21T16:11:09.738Z,8.47
2019-03-21T16:13:40.615Z,8.30
2019-03-21T16:16:10.912Z,9.97
2019-03-21T16:18:41.369Z,12.60
2019-03-21T16:21:11.833Z,13.57
2019-03-21T16:23:42.637Z,13.57
2019-03-21T16:26:14.331Z,14.83
2019-03-21T16:28:44.242Z,16.17
2019-03-21T16:31:15.040Z,18.53
2019-03-21T16:33:45.247Z,12.90
2019-03-21T16:36:15.119Z,19.33
2019-03-21T16:38:45.400Z,15.30
2019-03-21T16:41:16.207Z,18.10
2019-03-21T16:43:46.477Z,19.87
2019-03-21T16:46:16.493Z,13.57
2019-03-21T16:48:47.050Z,18.47
2019-03-21T16:51:17.357Z,20.17
2019-03-21T16:53:47.758Z,19.40
2019-03-21T16:56:18.025Z,21.23
2019-03-21T16:58:48.789Z,22.10
2019-03-21T17:01:19.626Z,20.50
2019-03-21T17:03:49.574Z,19.87
2019-03-21T17:06:19.902Z,20.30
2019-03-21T17:08:50.633Z,22.87
2019-03-21T17:11:21.547Z,22.03
2019-03-21T17:13:51.823Z,17.47
2019-03-21T17:16:22.686Z,18.47
2019-03-21T17:18:52.655Z,21.20
2019-03-21T17:21:22.955Z,19.77
2019-03-21T17:23:54.114Z,22.00
2019-03-21T17:26:24.942Z,21.20
2019-03-21T17:28:55.663Z,20.83
2019-03-21T17:31:26.013Z,21.30
2019-03-21T17:33:56.742Z,20.50
2019-03-21T17:36:27.131Z,21.23
2019-03-21T17:38:57.550Z,22.30
2019-03-21T17:41:27.538Z,19.20
2019-03-21T17:43:57.854Z,22.90
2019-03-21T17:46:28.467Z,21.07
2019-03-21T17:48:59.182Z,23.00
2019-03-21T17:51:29.599Z,19.87
2019-03-21T17:54:00.386Z,22.37
2019-03-21T17:56:30.710Z,23.17
2019-03-21T17:59:01.139Z,23.77
2019-03-21T18:01:31.575Z,19.63
2019-03-21T18:04:01.890Z,20.50
2019-03-21T18:06:32.179Z,23.10
2019-03-21T18:09:02.587Z,21.10
2019-03-21T18:11:32.994Z,22.97
2019-03-21T18:14:03.764Z,22.20
2019-03-21T18:16:34.326Z,22.07
2019-03-21T18:19:04.578Z,25.00
2019-03-21T18:21:34.523Z,24.70
2019-03-21T18:24:04.996Z,22.83
2019-03-21T18:26:35.457Z,23.70
2019-03-21T18:29:05.805Z,23.33
2019-03-21T18:31:36.314Z,22.27
2019-03-21T18:34:06.702Z,26.27
2019-03-21T18:36:37.421Z,12.57
2019-03-21T18:39:09.970Z,19.60
2019-03-21T18:41:40.412Z,25.60
2019-03-21T18:44:11.076Z,24.37
2019-03-21T18:46:41.573Z,24.87
2019-03-21T18:49:11.874Z,25.43
2019-03-21T18:51:42.583Z,26.20
2019-03-21T18:54:12.583Z,26.30
2019-03-21T18:56:43.120Z,28.67
2019-03-21T18:59:13.497Z,24.07
2019-03-21T19:01:43.763Z,24.43
2019-03-21T19:04:13.638Z,23.43
2019-03-21T19:06:44.187Z,24.90
2019-03-21T19:09:14.501Z,23.83
2019-03-21T19:11:44.752Z,26.40
2019-03-21T19:14:14.970Z,25.93
2019-03-21T19:16:45.265Z,22.87
2019-03-21T19:19:16.066Z,21.23
2019-03-21T19:21:46.337Z,23.77
2019-03-21T19:24:17.289Z,29.40
2019-03-21T19:26:47.949Z,29.53
2019-03-21T19:29:17.879Z,28.77
2019-03-21T19:31:47.720Z,23.07
2019-03-21T19:34:18.674Z,22.80
2019-03-21T19:36:49.081Z,28.07
2019-03-21T19:39:19.046Z,26.13
2019-03-21T19:41:48.987Z,20.57
2019-03-21T19:44:19.633Z,25.70
2019-03-21T19:46:50.764Z,27.20
2019-03-21T19:49:20.993Z,30.03
2019-03-21T19:51:51.508Z,23.57
2019-03-21T19:54:22.081Z,26.47
2019-03-21T19:56:52.297Z,28.63
2019-03-21T19:59:22.186Z,27.40
2019-03-21T20:01:53.025Z,30.30
2019-03-21T20:04:22.901Z,27.50
2019-03-21T20:06:53.070Z,27.60
2019-03-21T20:09:23.450Z,22.00
2019-03-21T20:11:53.857Z,26.33
2019-03-21T20:14:24.234Z,26.47
2019-03-21T20:16:55.062Z,33.37
2019-03-21T20:19:25.624Z,26.00
2019-03-21T20:21:55.816Z,32.53
2019-03-21T20:24:26.165Z,28.40
2019-03-21T20:26:56.778Z,29.27
2019-03-21T20:29:27.412Z,28.33
2019-03-21T20:31:57.719Z,28.93
2019-03-21T20:34:28.467Z,29.20
2019-03-21T20:36:59.288Z,33.07
2019-03-21T20:39:29.682Z,19.17
2019-03-21T20:42:00.357Z,22.97
2019-03-21T20:44:30.385Z,34.13
2019-03-21T20:47:00.626Z,25.07
2019-03-21T20:49:30.879Z,29.27
2019-03-21T20:52:01.488Z,27.60
2019-03-21T20:54:32.282Z,30.20
2019-03-21T20:57:03.358Z,30.87
2019-03-21T20:59:34.069Z,29.13
2019-03-21T21:02:04.640Z,26.97
2019-03-21T21:04:35.176Z,30.73
2019-03-21T21:07:05.526Z,30.37
2019-03-21T21:09:35.494Z,33.17
2019-03-21T21:12:05.843Z,26.00
2019-03-21T21:14:36.451Z,31.27
2019-03-21T21:17:06.728Z,25.90
2019-03-21T21:19:37.249Z,25.87
2019-03-21T21:22:08.445Z,31.40
2019-03-21T21:24:38.401Z,29.07
2019-03-21T21:27:08.976Z,30.90
2019-03-21T21:29:38.883Z,21.03
2019-03-21T21:32:09.513Z,31.07
2019-03-21T21:34:39.823Z,26.63
2019-03-21T21:37:10.249Z,28.20
2019-03-21T21:39:40.831Z,32.10
2019-03-21T21:42:11.636Z,20.03
2019-03-21T21:44:41.857Z,32.70
2019-03-21T21:47:12.113Z,29.63
2019-03-21T21:49:42.690Z,34.37
2019-03-21T21:52:13.393Z,28.40
2019-03-21T21:54:44.018Z,34.90
2019-03-21T21:57:14.693Z,35.37
2019-03-21T21:59:44.965Z,29.53
2019-03-21T22:02:15.233Z,33.37
2019-03-21T22:04:46.279Z,36.70
2019-03-21T22:07:16.555Z,30.40
2019-03-21T22:09:46.878Z,31.63
2019-03-21T22:12:17.827Z,30.80
2019-03-21T22:14:48.459Z,33.10
2019-03-21T22:17:18.658Z,35.67
2019-03-21T22:19:48.653Z,36.67
2019-03-21T22:22:19.461Z,27.43
2019-03-21T22:24:51.809Z,31.77
2019-03-21T22:27:22.705Z,38.90
2019-03-21T22:29:52.873Z,33.23
2019-03-21T22:32:23.123Z,36.23
2019-03-21T22:34:53.446Z,33.27
2019-03-21T22:37:23.745Z,30.33
2019-03-21T22:39:53.955Z,26.70
2019-03-21T22:42:24.178Z,37.77
2019-03-21T22:44:54.045Z,26.10
2019-03-21T22:47:24.645Z,25.43
2019-03-21T22:49:55.600Z,35.77
2019-03-21T22:52:26.172Z,31.60
2019-03-21T22:54:56.402Z,33.30
2019-03-21T22:57:27.046Z,33.40
2019-03-21T22:59:56.976Z,35.33
2019-03-21T23:02:27.827Z,37.53
2019-03-21T23:04:58.183Z,40.33
2019-03-21T23:07:28.753Z,28.77
2019-03-21T23:09:59.451Z,39.53
2019-03-21T23:12:29.709Z,32.80
2019-03-21T23:14:59.717Z,31.77
2019-03-21T23:17:30.080Z,36.97
2019-03-21T23:20:00.851Z,35.00
2019-03-21T23:22:31.064Z,33.20
2019-03-21T23:25:01.342Z,34.53
2019-03-21T23:27:31.248Z,32.60
2019-03-21T23:30:02.194Z,28.67
2019-03-21T23:32:32.067Z,32.03
2019-03-21T23:35:02.367Z,37.23
2019-03-21T23:37:32.329Z,31.40
2019-03-21T23:40:03.029Z,35.20
2019-03-21T23:42:32.955Z,31.70
2019-03-21T23:45:03.166Z,35.03
2019-03-21T23:47:33.403Z,34.27
2019-03-21T23:50:04.749Z,37.83
2019-03-21T23:52:35.586Z,36.63
2019-03-21T23:55:06.123Z,36.70
2019-03-21T23:57:36.755Z,34.13
